createdAt,value
2018-09-28T00:00:54.149Z,12.90
2018-09-28T00:03:22.981Z,12.90
2018-09-28T00:05:51.742Z,12.90
2018-09-28T00:08:20.436Z,12.90
2018-09-28T00:10:49.243Z,12.90
2018-09-28T00:13:17.935Z,12.90
2018-09-28T00:15:51.822Z,13.10
2018-09-28T00:18:20.571Z,13.30
2018-09-28T00:20:49.290Z,13.30
2018-09-28T00:23:17.962Z,13.30
2018-09-28T00:25:46.883Z,13.20
2018-09-28T00:28:15.650Z,13.20
2018-09-28T00:30:44.362Z,13.10
2018-09-28T00:33:13.154Z,13.00
2018-09-28T00:35:41.799Z,13.10
2018-09-28T00:38:10.483Z,13.10
2018-09-28T00:40:39.174Z,13.10
2018-09-28T00:43:10.320Z,13.30
2018-09-28T00:45:39.008Z,13.30
2018-09-28T00:48:07.819Z,13.30
2018-09-28T00:50:36.573Z,13.30
2018-09-28T00:53:05.330Z,13.30
2018-09-28T00:55:34.207Z,13.20
2018-09-28T00:58:02.939Z,13.10
2018-09-28T01:00:31.730Z,13.00
2018-09-28T01:03:00.430Z,13.00
2018-09-28T01:05:29.198Z,13.00
2018-09-28T01:07:57.978Z,13.00
2018-09-28T01:10:26.669Z,13.00
2018-09-28T01:12:55.482Z,13.00
2018-09-28T01:15:24.238Z,13.00
2018-09-28T01:17:52.947Z,12.90
2018-09-28T01:20:21.679Z,12.90
2018-09-28T01:22:50.439Z,12.80
2018-09-28T01:25:19.270Z,12.80
2018-09-28T01:27:47.998Z,12.70
2018-09-28T01:30:16.751Z,12.70
2018-09-28T01:32:45.576Z,12.60
2018-09-28T01:35:14.376Z,12.60
2018-09-28T01:37:43.367Z,12.60
2018-09-28T01:40:12.039Z,12.50
2018-09-28T01:42:40.742Z,12.40
2018-09-28T01:45:09.421Z,12.30
2018-09-28T01:47:38.356Z,12.20
2018-09-28T01:50:07.123Z,12.20
2018-09-28T01:52:35.918Z,12.10
2018-09-28T01:55:04.698Z,12.20
2018-09-28T01:57:38.670Z,12.20
2018-09-28T02:00:07.412Z,12.20
2018-09-28T02:02:36.215Z,12.20
2018-09-28T02:05:05.011Z,12.20
2018-09-28T02:07:33.674Z,12.20
2018-09-28T02:10:02.327Z,12.20
2018-09-28T02:12:31.003Z,12.20
2018-09-28T02:14:59.674Z,12.10
2018-09-28T02:17:28.405Z,12.00
2018-09-28T02:19:57.402Z,12.00
2018-09-28T02:22:26.161Z,11.90
2018-09-28T02:24:54.819Z,11.80
2018-09-28T02:27:23.803Z,11.80
2018-09-28T02:29:52.594Z,11.80
2018-09-28T02:32:21.268Z,11.80
2018-09-28T02:34:49.962Z,11.80
2018-09-28T02:37:18.952Z,11.90
2018-09-28T02:39:47.710Z,11.80
2018-09-28T02:42:16.321Z,11.80
2018-09-28T02:44:44.995Z,11.70
2018-09-28T02:47:13.690Z,11.60
2018-09-28T02:49:42.394Z,11.60
2018-09-28T02:52:10.983Z,11.60
2018-09-28T02:54:39.675Z,11.60
2018-09-28T02:57:08.313Z,11.60
2018-09-28T02:59:37.003Z,11.60
2018-09-28T03:02:05.878Z,11.60
2018-09-28T03:04:34.614Z,11.50
2018-09-28T03:07:03.421Z,11.50
2018-09-28T03:09:32.139Z,11.50
2018-09-28T03:12:00.835Z,11.50
2018-09-28T03:14:29.622Z,11.50
2018-09-28T03:16:58.412Z,11.60
2018-09-28T03:19:27.174Z,11.60
2018-09-28T03:21:56.003Z,11.60
2018-09-28T03:24:24.720Z,11.70
2018-09-28T03:26:53.422Z,11.70
2018-09-28T03:29:22.194Z,11.80
2018-09-28T03:31:50.850Z,11.90
2018-09-28T03:34:19.609Z,11.90
2018-09-28T03:36:48.350Z,11.90
2018-09-28T03:39:17.124Z,11.90
2018-09-28T03:41:45.890Z,12.00
2018-09-28T03:44:14.552Z,11.90
2018-09-28T03:46:43.272Z,11.90
2018-09-28T03:49:11.962Z,11.90
2018-09-28T03:51:41.367Z,11.80
2018-09-28T03:54:10.136Z,11.70
2018-09-28T03:56:43.830Z,11.70
2018-09-28T03:59:12.502Z,11.60
2018-09-28T04:01:41.317Z,11.50
2018-09-28T04:04:10.022Z,11.50
2018-09-28T04:06:38.841Z,11.50
2018-09-28T04:09:09.050Z,11.50
2018-09-28T04:11:37.931Z,11.50
2018-09-28T04:14:06.760Z,11.50
2018-09-28T04:16:35.546Z,11.50
2018-09-28T04:19:04.222Z,11.40
2018-09-28T04:21:33.035Z,11.40
2018-09-28T04:24:01.754Z,11.30
2018-09-28T04:26:30.500Z,11.30
2018-09-28T04:28:59.170Z,11.30
2018-09-28T04:31:27.858Z,11.30
2018-09-28T04:33:56.599Z,11.30
2018-09-28T04:36:25.902Z,11.20
2018-09-28T04:38:54.568Z,11.10
2018-09-28T04:41:23.305Z,11.10
2018-09-28T04:43:51.974Z,11.10
2018-09-28T04:46:20.919Z,11.10
2018-09-28T04:48:49.790Z,11.10
2018-09-28T04:51:18.509Z,11.10
2018-09-28T04:53:47.230Z,11.10
2018-09-28T04:56:15.878Z,11.00
2018-09-28T04:58:44.590Z,11.00
2018-09-28T05:01:13.306Z,11.00
2018-09-28T05:03:41.950Z,11.10
2018-09-28T05:06:10.627Z,11.10
2018-09-28T05:08:39.385Z,11.10
2018-09-28T05:11:08.059Z,11.20
2018-09-28T05:13:36.763Z,11.20
2018-09-28T05:16:05.465Z,11.10
2018-09-28T05:18:34.475Z,11.10
2018-09-28T05:21:03.330Z,11.20
2018-09-28T05:23:32.156Z,11.20
2018-09-28T05:26:01.207Z,11.20
2018-09-28T05:28:30.012Z,11.30
2018-09-28T05:30:59.238Z,11.30
2018-09-28T05:33:28.062Z,11.30
2018-09-28T05:36:02.241Z,11.40
2018-09-28T05:38:30.927Z,11.40
2018-09-28T05:40:59.671Z,11.40
2018-09-28T05:43:28.341Z,11.30
2018-09-28T05:45:57.091Z,11.30
2018-09-28T05:48:25.743Z,11.30
2018-09-28T05:50:54.515Z,11.20
2018-09-28T05:53:23.599Z,11.10
2018-09-28T05:55:52.345Z,11.10
2018-09-28T05:58:26.237Z,11.10
2018-09-28T06:01:00.348Z,11.00
2018-09-28T06:03:29.143Z,11.00
2018-09-28T06:06:00.135Z,11.00
2018-09-28T06:08:28.891Z,11.00
2018-09-28T06:10:57.725Z,11.00
2018-09-28T06:13:26.671Z,10.90
2018-09-28T06:15:55.290Z,10.90
2018-09-28T06:18:24.110Z,10.90
2018-09-28T06:20:52.801Z,10.90
2018-09-28T06:23:21.469Z,10.90
2018-09-28T06:25:50.543Z,10.90
2018-09-28T06:28:19.263Z,10.90
2018-09-28T06:30:47.934Z,11.00
2018-09-28T06:33:16.734Z,11.00
2018-09-28T06:35:45.634Z,11.00
2018-09-28T06:38:14.266Z,11.10
2018-09-28T06:40:43.079Z,11.10
2018-09-28T06:43:11.811Z,11.10
2018-09-28T06:45:40.474Z,11.10
2018-09-28T06:48:09.356Z,11.10
2018-09-28T06:50:38.234Z,11.10
2018-09-28T06:53:07.025Z,11.10
2018-09-28T06:55:35.850Z,11.10
2018-09-28T06:58:04.579Z,11.10
2018-09-28T07:00:33.290Z,11.20
2018-09-28T07:03:02.058Z,11.20
2018-09-28T07:05:30.757Z,11.20
2018-09-28T07:07:59.545Z,11.30
2018-09-28T07:10:28.287Z,11.20
2018-09-28T07:12:57.386Z,11.30
2018-09-28T07:15:26.150Z,11.30
2018-09-28T07:17:55.047Z,11.30
2018-09-28T07:20:23.759Z,11.30
2018-09-28T07:22:52.579Z,11.30
2018-09-28T07:25:21.685Z,11.30
2018-09-28T07:27:50.774Z,11.30
2018-09-28T07:30:19.654Z,11.30
2018-09-28T07:32:48.420Z,11.40
2018-09-28T07:35:17.124Z,11.40
2018-09-28T07:37:51.076Z,11.40
2018-09-28T07:40:20.008Z,11.50
2018-09-28T07:42:48.715Z,11.50
2018-09-28T07:45:17.437Z,11.50
2018-09-28T07:47:46.260Z,11.60
2018-09-28T07:50:15.081Z,11.60
2018-09-28T07:52:43.806Z,11.60
2018-09-28T07:55:12.565Z,11.70
2018-09-28T07:57:41.358Z,11.70
2018-09-28T08:00:10.245Z,11.70
2018-09-28T08:02:38.974Z,11.70
2018-09-28T08:05:07.988Z,11.70
2018-09-28T08:07:36.790Z,11.80
2018-09-28T08:10:05.818Z,11.80
2018-09-28T08:12:34.447Z,11.90
2018-09-28T08:15:03.276Z,11.90
2018-09-28T08:17:31.983Z,11.90
2018-09-28T08:20:01.811Z,12.00
2018-09-28T08:22:30.620Z,12.10
2018-09-28T08:24:59.403Z,12.30
2018-09-28T08:27:28.272Z,12.50
2018-09-28T08:29:57.551Z,12.80
2018-09-28T08:32:26.275Z,13.10
2018-09-28T08:34:55.186Z,13.40
2018-09-28T08:37:23.959Z,13.70
2018-09-28T08:39:52.689Z,14.00
2018-09-28T08:42:21.404Z,14.40
2018-09-28T08:44:50.050Z,14.60
2018-09-28T08:47:18.706Z,14.90
2018-09-28T08:49:47.415Z,15.10
2018-09-28T08:52:16.099Z,15.40
2018-09-28T08:54:44.924Z,15.60
2018-09-28T08:57:17.563Z,15.80
2018-09-28T08:59:46.519Z,16.00
2018-09-28T09:02:18.771Z,16.20
2018-09-28T09:04:47.435Z,16.40
2018-09-28T09:07:16.178Z,16.50
2018-09-28T09:09:45.660Z,16.70
2018-09-28T09:12:14.387Z,16.80
2018-09-28T09:14:44.819Z,17.00
2018-09-28T09:17:18.592Z,17.20
2018-09-28T09:19:47.336Z,17.40
2018-09-28T09:22:16.149Z,17.50
2018-09-28T09:24:44.883Z,17.70
2018-09-28T09:27:13.595Z,17.90
2018-09-28T09:29:45.831Z,18.00
2018-09-28T09:32:14.528Z,18.20
2018-09-28T09:34:43.147Z,18.40
2018-09-28T09:37:12.399Z,18.60
2018-09-28T09:39:41.234Z,18.70
2018-09-28T09:42:10.154Z,18.80
2018-09-28T09:44:41.084Z,19.00
2018-09-28T09:47:19.288Z,19.10
2018-09-28T09:49:48.084Z,19.30
2018-09-28T09:52:16.751Z,19.50
2018-09-28T09:54:45.509Z,19.60
2018-09-28T09:57:14.147Z,19.70
2018-09-28T09:59:42.870Z,19.70
2018-09-28T10:02:16.791Z,19.70
2018-09-28T10:04:45.476Z,19.80
2018-09-28T10:07:14.162Z,20.00
2018-09-28T10:09:42.921Z,20.30
2018-09-28T10:12:11.526Z,20.40
2018-09-28T10:14:40.214Z,20.40
2018-09-28T10:17:09.021Z,20.60
2018-09-28T10:19:37.781Z,20.60
2018-09-28T10:22:06.778Z,20.70
2018-09-28T10:24:35.643Z,20.80
2018-09-28T10:27:04.219Z,21.00
2018-09-28T10:29:32.851Z,21.20
2018-09-28T10:32:01.506Z,21.30
2018-09-28T10:34:30.313Z,21.40
2018-09-28T10:36:59.889Z,21.60
2018-09-28T10:39:28.676Z,21.60
2018-09-28T10:41:57.406Z,21.80
2018-09-28T10:44:26.144Z,21.90
2018-09-28T10:46:54.834Z,21.80
2018-09-28T10:49:23.642Z,21.80
2018-09-28T10:51:52.464Z,22.00
2018-09-28T10:54:21.075Z,22.10
2018-09-28T10:56:49.751Z,22.10
2018-09-28T10:59:18.350Z,22.10
2018-09-28T11:01:47.124Z,22.20
2018-09-28T11:04:15.927Z,22.30
2018-09-28T11:06:44.686Z,22.40
2018-09-28T11:09:13.628Z,22.40
2018-09-28T11:11:42.627Z,22.50
2018-09-28T11:14:11.325Z,22.50
2018-09-28T11:16:40.523Z,22.50
2018-09-28T11:19:09.291Z,22.80
2018-09-28T11:21:37.997Z,22.80
2018-09-28T11:24:06.759Z,22.70
2018-09-28T11:26:35.458Z,22.70
2018-09-28T11:29:04.186Z,22.70
2018-09-28T11:31:34.823Z,22.70
2018-09-28T11:34:03.615Z,22.70
2018-09-28T11:36:32.303Z,22.80
2018-09-28T11:39:01.267Z,22.90
2018-09-28T11:41:29.978Z,23.00
2018-09-28T11:44:11.039Z,23.20
2018-09-28T11:46:39.790Z,23.20
2018-09-28T11:49:08.688Z,23.30
2018-09-28T11:51:37.289Z,23.20
2018-09-28T11:54:05.936Z,23.30
2018-09-28T11:56:34.710Z,23.30
2018-09-28T11:59:03.600Z,23.20
2018-09-28T12:01:32.270Z,23.30
2018-09-28T12:04:00.977Z,23.50
2018-09-28T12:06:29.959Z,23.50
2018-09-28T12:08:58.674Z,23.60
2018-09-28T12:11:27.408Z,23.70
2018-09-28T12:13:58.280Z,23.80
2018-09-28T12:16:27.326Z,23.70
2018-09-28T12:18:56.067Z,23.50
2018-09-28T12:21:24.895Z,23.70
2018-09-28T12:23:53.512Z,23.80
2018-09-28T12:26:22.282Z,23.90
2018-09-28T12:28:50.914Z,24.00
2018-09-28T12:31:19.563Z,24.10
2018-09-28T12:33:48.490Z,24.10
2018-09-28T12:36:17.086Z,24.00
2018-09-28T12:38:45.838Z,24.10
2018-09-28T12:41:14.462Z,24.10
2018-09-28T12:43:43.250Z,24.20
2018-09-28T12:46:11.910Z,24.20
2018-09-28T12:48:40.593Z,24.20
2018-09-28T12:51:09.447Z,24.30
2018-09-28T12:53:38.164Z,24.30
2018-09-28T12:56:06.986Z,24.40
2018-09-28T12:58:36.127Z,24.40
2018-09-28T13:01:05.017Z,24.50
2018-09-28T13:03:33.613Z,24.40
2018-09-28T13:06:02.283Z,24.40
2018-09-28T13:08:31.059Z,24.40
2018-09-28T13:10:59.806Z,24.40
2018-09-28T13:13:28.556Z,24.40
2018-09-28T13:15:57.339Z,24.30
2018-09-28T13:18:26.050Z,24.30
2018-09-28T13:20:54.738Z,24.20
2018-09-28T13:23:23.420Z,24.10
2018-09-28T13:25:52.230Z,24.10
2018-09-28T13:28:20.948Z,24.00
2018-09-28T13:30:49.836Z,24.00
2018-09-28T13:33:18.588Z,24.00
2018-09-28T13:35:47.322Z,24.00
2018-09-28T13:38:16.007Z,24.00
2018-09-28T13:40:44.839Z,24.00
2018-09-28T13:43:13.471Z,24.00
2018-09-28T13:45:42.203Z,24.10
2018-09-28T13:48:11.005Z,24.10
2018-09-28T13:50:39.784Z,24.10
2018-09-28T13:53:09.093Z,24.10
2018-09-28T13:55:38.016Z,24.10
2018-09-28T13:58:07.572Z,24.00
2018-09-28T14:00:36.370Z,24.00
2018-09-28T14:03:05.388Z,24.00
2018-09-28T14:05:34.199Z,23.90
2018-09-28T14:08:07.959Z,23.90
2018-09-28T14:10:36.720Z,23.80
2018-09-28T14:13:05.463Z,23.80
2018-09-28T14:15:36.308Z,23.70
2018-09-28T14:18:18.881Z,23.70
2018-09-28T14:20:47.669Z,23.80
2018-09-28T14:23:16.446Z,23.80
2018-09-28T14:25:45.611Z,23.90
2018-09-28T14:28:14.283Z,23.90
2018-09-28T14:30:43.251Z,23.90
2018-09-28T14:33:11.847Z,23.90
2018-09-28T14:35:40.562Z,23.90
2018-09-28T14:38:09.303Z,23.90
2018-09-28T14:40:37.967Z,23.90
2018-09-28T14:45:35.072Z,23.80
2018-09-28T14:48:03.792Z,23.80
2018-09-28T14:50:32.493Z,23.80
2018-09-28T14:53:01.073Z,23.80
2018-09-28T14:55:29.723Z,23.70
2018-09-28T14:57:58.495Z,23.70
2018-09-28T15:00:27.206Z,23.70
2018-09-28T15:02:55.905Z,23.70
2018-09-28T15:05:24.579Z,23.50
2018-09-28T15:07:53.590Z,23.60
2018-09-28T15:10:22.406Z,23.50
2018-09-28T15:12:50.994Z,23.50
2018-09-28T15:15:19.692Z,23.40
2018-09-28T15:17:48.275Z,23.40
2018-09-28T15:20:16.971Z,23.40
2018-09-28T15:22:46.007Z,23.30
2018-09-28T15:25:14.759Z,23.30
2018-09-28T15:27:43.398Z,23.10
2018-09-28T15:30:12.156Z,22.90
2018-09-28T15:32:40.879Z,22.80
2018-09-28T15:35:09.598Z,22.60
2018-09-28T15:37:38.441Z,22.40
2018-09-28T15:40:07.415Z,22.30
2018-09-28T15:42:41.103Z,22.20
2018-09-28T15:45:09.794Z,22.10
2018-09-28T15:47:43.601Z,22.10
2018-09-28T15:50:12.495Z,22.00
2018-09-28T15:52:41.165Z,22.00
2018-09-28T15:55:09.895Z,22.00
2018-09-28T15:57:38.901Z,21.90
2018-09-28T16:00:08.204Z,21.80
2018-09-28T16:02:37.006Z,21.70
2018-09-28T16:05:05.806Z,21.70
2018-09-28T16:07:34.704Z,21.60
2018-09-28T16:10:03.483Z,21.60
2018-09-28T16:12:32.154Z,21.60
2018-09-28T16:15:00.839Z,21.60
2018-09-28T16:17:29.663Z,21.60
2018-09-28T16:19:58.610Z,21.60
2018-09-28T16:22:27.343Z,21.60
2018-09-28T16:24:56.073Z,21.60
2018-09-28T16:27:25.135Z,21.60
2018-09-28T16:29:53.874Z,21.60
2018-09-28T16:32:22.936Z,21.60
2018-09-28T16:34:51.859Z,21.50
2018-09-28T16:37:21.438Z,21.50
2018-09-28T16:39:50.284Z,21.50
2018-09-28T16:42:19.030Z,21.40
2018-09-28T16:44:47.760Z,21.20
2018-09-28T16:47:16.393Z,21.20
2018-09-28T16:49:45.031Z,21.10
2018-09-28T16:52:13.735Z,21.00
2018-09-28T16:54:42.507Z,21.00
2018-09-28T16:57:16.728Z,20.90
2018-09-28T16:59:45.601Z,20.90
2018-09-28T17:02:14.434Z,20.70
2018-09-28T17:04:43.582Z,20.60
2018-09-28T17:07:21.853Z,20.50
2018-09-28T17:09:50.494Z,20.40
2018-09-28T17:12:19.671Z,20.40
2018-09-28T17:14:48.467Z,20.30
2018-09-28T17:17:17.225Z,20.30
2018-09-28T17:19:46.003Z,20.20
2018-09-28T17:22:14.782Z,20.20
2018-09-28T17:24:43.484Z,20.20
2018-09-28T17:27:12.255Z,20.10
2018-09-28T17:29:40.998Z,20.10
2018-09-28T17:32:09.674Z,20.10
2018-09-28T17:34:38.419Z,20.10
2018-09-28T17:37:07.147Z,20.20
2018-09-28T17:39:35.861Z,20.10
2018-09-28T17:42:04.526Z,20.10
2018-09-28T17:44:33.134Z,20.00
2018-09-28T17:47:01.794Z,20.00
2018-09-28T17:49:30.520Z,20.00
2018-09-28T17:51:59.135Z,20.00
2018-09-28T17:54:27.870Z,20.00
2018-09-28T17:56:56.526Z,19.90
2018-09-28T17:59:25.236Z,19.90
2018-09-28T18:01:53.916Z,19.80
2018-09-28T18:04:22.594Z,19.80
2018-09-28T18:06:51.269Z,19.70
2018-09-28T18:09:19.931Z,19.70
2018-09-28T18:11:48.657Z,19.60
2018-09-28T18:14:17.354Z,19.60
2018-09-28T18:16:46.256Z,19.50
2018-09-28T18:19:14.931Z,19.50
2018-09-28T18:21:43.596Z,19.50
2018-09-28T18:24:12.222Z,19.50
2018-09-28T18:26:41.063Z,19.40
2018-09-28T18:29:09.738Z,19.40
2018-09-28T18:31:38.488Z,19.40
2018-09-28T18:34:07.227Z,19.30
2018-09-28T18:36:35.914Z,19.40
2018-09-28T18:39:06.340Z,19.30
2018-09-28T18:41:35.027Z,19.30
2018-09-28T18:44:03.919Z,19.20
2018-09-28T18:46:32.562Z,19.20
2018-09-28T18:49:01.414Z,19.10
2018-09-28T18:51:30.144Z,19.10
2018-09-28T18:53:58.734Z,19.10
2018-09-28T18:56:27.442Z,19.10
2018-09-28T18:58:56.120Z,19.10
2018-09-28T19:01:24.822Z,19.00
2018-09-28T19:03:54.309Z,18.90
2018-09-28T19:06:23.099Z,18.80
2018-09-28T19:08:51.871Z,18.80
2018-09-28T19:11:20.573Z,18.80
2018-09-28T19:13:49.262Z,18.80
2018-09-28T19:16:18.239Z,18.80
2018-09-28T19:18:46.894Z,18.80
2018-09-28T19:21:15.575Z,18.80
2018-09-28T19:23:44.288Z,18.80
2018-09-28T19:26:12.938Z,18.80
2018-09-28T19:28:41.670Z,18.70
2018-09-28T19:31:10.399Z,18.60
2018-09-28T19:33:39.054Z,18.50
2018-09-28T19:36:07.883Z,18.40
2018-09-28T19:38:36.821Z,18.30
2018-09-28T19:41:05.491Z,18.30
2018-09-28T19:43:34.187Z,18.30
2018-09-28T19:46:02.923Z,18.20
2018-09-28T19:48:31.587Z,18.20
2018-09-28T19:51:00.206Z,18.10
2018-09-28T19:53:28.916Z,18.10
2018-09-28T19:55:57.600Z,18.10
2018-09-28T19:58:26.432Z,18.10
2018-09-28T20:00:55.112Z,18.10
2018-09-28T20:03:23.969Z,18.10
2018-09-28T20:05:52.673Z,18.10
2018-09-28T20:08:21.406Z,18.20
2018-09-28T20:10:50.108Z,18.10
2018-09-28T20:13:18.773Z,18.10
2018-09-28T20:15:47.478Z,18.10
2018-09-28T20:18:16.156Z,18.10
2018-09-28T20:20:45.007Z,18.10
2018-09-28T20:23:13.671Z,18.20
2018-09-28T20:25:42.301Z,18.10
2018-09-28T20:28:11.006Z,18.10
2018-09-28T20:30:39.663Z,18.10
2018-09-28T20:33:08.488Z,17.90
2018-09-28T20:35:37.119Z,17.80
2018-09-28T20:38:06.302Z,17.70
2018-09-28T20:40:35.088Z,17.70
2018-09-28T20:43:03.776Z,17.70
2018-09-28T20:45:32.468Z,17.70
2018-09-28T20:48:01.146Z,17.70
2018-09-28T20:50:29.734Z,17.70
2018-09-28T20:52:58.830Z,17.80
2018-09-28T20:55:27.567Z,17.80
2018-09-28T20:57:56.356Z,17.80
2018-09-28T21:00:25.107Z,17.80
2018-09-28T21:02:53.723Z,17.80
2018-09-28T21:05:22.365Z,17.70
2018-09-28T21:07:51.302Z,17.50
2018-09-28T21:10:20.007Z,17.40
2018-09-28T21:12:48.703Z,17.40
2018-09-28T21:15:17.663Z,17.30
2018-09-28T21:17:46.391Z,17.30
2018-09-28T21:20:15.142Z,17.30
2018-09-28T21:22:43.890Z,17.10
2018-09-28T21:25:12.542Z,17.10
2018-09-28T21:27:41.215Z,17.10
2018-09-28T21:30:10.003Z,17.10
2018-09-28T21:32:38.674Z,17.10
2018-09-28T21:35:07.357Z,17.00
2018-09-28T21:37:36.023Z,16.90
2018-09-28T21:40:04.723Z,16.80
2018-09-28T21:42:33.375Z,16.70
2018-09-28T21:45:02.034Z,16.60
2018-09-28T21:47:30.732Z,16.60
2018-09-28T21:49:59.402Z,16.60
2018-09-28T21:52:28.062Z,16.60
2018-09-28T21:54:56.662Z,16.50
2018-09-28T21:57:25.568Z,16.50
2018-09-28T21:59:54.219Z,16.40
2018-09-28T22:02:22.815Z,16.50
2018-09-28T22:04:51.541Z,16.60
2018-09-28T22:07:20.188Z,16.60
2018-09-28T22:09:48.898Z,16.70
2018-09-28T22:12:17.566Z,16.70
2018-09-28T22:14:46.214Z,16.70
2018-09-28T22:17:15.125Z,16.70
2018-09-28T22:19:43.796Z,16.70
2018-09-28T22:22:12.416Z,16.70
2018-09-28T22:24:41.030Z,16.60
2018-09-28T22:27:09.839Z,16.50
2018-09-28T22:29:38.546Z,16.60
2018-09-28T22:32:07.273Z,16.60
2018-09-28T22:34:35.846Z,16.70
2018-09-28T22:37:04.506Z,16.70
2018-09-28T22:39:33.183Z,16.80
2018-09-28T22:42:01.846Z,16.90
2018-09-28T22:44:30.560Z,17.00
2018-09-28T22:46:59.255Z,17.10
2018-09-28T22:49:27.910Z,17.10
2018-09-28T22:51:56.602Z,17.20
2018-09-28T22:54:25.327Z,17.40
2018-09-28T22:56:53.974Z,17.50
2018-09-28T22:59:22.643Z,17.60
2018-09-28T23:01:51.338Z,17.70
2018-09-28T23:04:20.010Z,17.80
2018-09-28T23:06:48.919Z,17.80
2018-09-28T23:09:17.587Z,17.80
2018-09-28T23:11:46.346Z,17.80
2018-09-28T23:14:15.019Z,17.90
2018-09-28T23:16:43.849Z,17.90
2018-09-28T23:19:12.523Z,17.90
2018-09-28T23:21:41.205Z,17.90
2018-09-28T23:24:09.800Z,17.80
2018-09-28T23:26:38.531Z,17.90
2018-09-28T23:29:07.222Z,17.90
2018-09-28T23:31:35.880Z,18.00
2018-09-28T23:34:04.488Z,18.00
2018-09-28T23:36:33.151Z,18.00
2018-09-28T23:39:01.778Z,17.90
2018-09-28T23:41:30.417Z,17.80
2018-09-28T23:43:59.026Z,17.80
2018-09-28T23:46:27.694Z,17.80
2018-09-28T23:48:56.324Z,17.70
2018-09-28T23:51:25.051Z,17.70
2018-09-28T23:53:53.719Z,17.70
2018-09-28T23:56:22.530Z,17.70
2018-09-28T23:58:51.138Z,17.70
